Time;durP1;ratioP1;P1;durP2;ratioP2;P2;SDS_P1;SDS_P2;PMS_P1;PMS_P2;Temp;Humidity;BMP_temperature;BMP_pressure;BME280_temperature;BME280_humidity;BME280_pressure;Samples;Min_cycle;Max_cycle;Signal;HPM_P1;HPM_P2
2022/03/14 00:02:10;;;;;;;21.05;9.02;;;;;;;6.41;23.25;99876.72;4487247;31;20379;-78
2022/03/14 00:04:37;;;;;;;18.98;8.68;;;;;;;6.39;23.28;99881.09;4486435;31;20412;-78
2022/03/14 00:07:04;;;;;;;22.23;9.10;;;;;;;6.38;23.34;99889.88;4486119;32;20110;-78
2022/03/14 00:09:30;;;;;;;20.40;9.10;;;;;;;6.42;23.24;99885.44;4487270;31;20140;-79
2022/03/14 00:11:57;;;;;;;20.48;9.48;;;;;;;6.45;23.24;99885.34;4487314;31;20097;-78
2022/03/14 00:14:25;;;;;;;20.80;9.18;;;;;;;6.42;23.33;99886.28;4486107;32;20109;-78
2022/03/14 00:16:55;;;;;;;18.27;8.32;;;;;;;6.33;23.47;99888.22;4486326;32;20127;-78
2022/03/14 00:19:21;;;;;;;21.55;8.95;;;;;;;6.43;23.38;99893.25;4486168;32;20151;-78
2022/03/14 00:21:47;;;;;;;18.83;8.60;;;;;;;6.36;23.46;99896.88;4487324;32;20427;-78
2022/03/14 00:24:12;;;;;;;18.58;8.73;;;;;;;6.40;23.34;99893.31;4486402;32;20513;-78
2022/03/14 00:26:39;;;;;;;19.95;8.48;;;;;;;6.38;23.38;99891.63;4473073;32;20141;-78
2022/03/14 00:29:05;;;;;;;20.00;9.05;;;;;;;6.40;23.41;99895.94;4486219;32;20144;-78
2022/03/14 00:31:31;;;;;;;20.23;8.55;;;;;;;6.35;23.48;99897.75;4473090;32;20455;-78
2022/03/14 00:33:56;;;;;;;18.00;8.20;;;;;;;6.38;23.49;99889.88;4487330;32;20084;-78
2022/03/14 00:36:22;;;;;;;17.08;7.80;;;;;;;6.39;23.52;99893.34;4487328;31;20129;-78
2022/03/14 00:38:48;;;;;;;18.40;8.98;;;;;;;6.39;23.46;99895.94;4487181;31;20092;-78
2022/03/14 00:41:14;;;;;;;17.58;7.80;;;;;;;6.39;23.50;99895.94;4487266;31;20104;-78
2022/03/14 00:43:40;;;;;;;22.52;8.85;;;;;;;6.35;23.55;99899.53;4487361;31;20084;-78
2022/03/14 00:46:05;;;;;;;20.55;8.57;;;;;;;6.40;23.43;99895.94;4487247;31;20092;-78
2022/03/14 00:48:32;;;;;;;18.37;8.18;;;;;;;6.41;23.56;99897.66;4487214;31;20103;-78
2022/03/14 00:50:58;;;;;;;22.30;9.17;;;;;;;6.38;23.43;99907.34;4485977;32;20156;-79
2022/03/14 00:53:23;;;;;;;18.65;8.75;;;;;;;6.28;23.51;99904.88;4486733;32;20121;-78
2022/03/14 00:55:49;;;;;;;19.27;9.07;;;;;;;6.45;23.42;99906.28;4486912;31;20147;-78
2022/03/14 00:58:14;;;;;;;18.48;8.90;;;;;;;6.47;23.35;99905.41;4486674;31;20172;-78
2022/03/14 01:00:40;;;;;;;21.12;8.85;;;;;;;6.46;23.34;99898.41;4486859;31;20497;-78
2022/03/14 01:03:05;;;;;;;18.90;9.25;;;;;;;6.30;23.60;99900.47;4472371;32;20092;-79
2022/03/14 01:05:31;;;;;;;21.15;9.07;;;;;;;6.40;23.54;99898.53;4472454;32;20106;-78
2022/03/14 01:07:56;;;;;;;22.20;9.88;;;;;;;6.37;23.50;99901.22;4485750;32;20161;-78
2022/03/14 01:10:22;;;;;;;19.65;8.75;;;;;;;6.45;23.40;99904.56;4485599;32;20108;-78
2022/03/14 01:12:48;;;;;;;20.23;9.15;;;;;;;6.38;23.49;99900.34;4485524;32;20134;-78
2022/03/14 01:15:13;;;;;;;21.08;8.93;;;;;;;6.38;23.44;99904.72;4485172;32;20111;-78
2022/03/14 01:17:40;;;;;;;19.58;8.68;;;;;;;6.36;23.50;99902.13;4485266;32;20093;-78
2022/03/14 01:20:07;;;;;;;19.87;9.48;;;;;;;6.38;23.45;99902.09;4486498;31;20097;-78
2022/03/14 01:22:32;;;;;;;20.65;8.70;;;;;;;6.34;23.51;99906.53;4485390;32;20130;-78
2022/03/14 01:24:58;;;;;;;21.17;9.32;;;;;;;6.29;23.63;99903.13;4485189;32;20096;-78
2022/03/14 01:27:23;;;;;;;21.92;8.90;;;;;;;6.37;23.56;99905.59;4485282;32;20114;-78
2022/03/14 01:29:48;;;;;;;18.30;8.25;;;;;;;6.38;23.47;99909.94;4486383;31;20093;-78
2022/03/14 01:32:14;;;;;;;18.00;8.65;;;;;;;6.36;23.61;99907.34;4486468;31;20099;-78
2022/03/14 01:34:39;;;;;;;16.95;8.00;;;;;;;6.31;23.58;99909.19;4485238;32;20084;-78
2022/03/14 01:37:05;;;;;;;18.73;8.48;;;;;;;6.37;23.50;99906.44;4486365;31;20145;-78
2022/03/14 01:39:31;;;;;;;21.70;8.55;;;;;;;6.28;23.64;99912.75;4486261;31;20444;-78
2022/03/14 01:41:56;;;;;;;19.27;8.20;;;;;;;6.38;23.58;99921.28;4485068;32;20100;-78
2022/03/14 01:44:22;;;;;;;18.83;8.10;;;;;;;6.36;23.78;99912.59;4485319;32;20153;-78
2022/03/14 01:46:48;;;;;;;17.73;8.30;;;;;;;6.25;23.83;99925.87;4485306;32;20438;-79
2022/03/14 01:49:14;;;;;;;17.90;8.15;;;;;;;6.28;23.88;99924.97;4485156;32;20105;-78
2022/03/14 01:51:41;;;;;;;19.33;8.30;;;;;;;6.23;23.87;99919.81;4486168;31;20386;-78
2022/03/14 01:54:10;;;;;;;18.33;8.27;;;;;;;6.22;23.95;99932.91;4486341;31;20159;-79
2022/03/14 01:56:39;;;;;;;18.87;8.18;;;;;;;6.14;24.09;99927.81;4485132;32;20092;-78
2022/03/14 01:59:05;;;;;;;18.55;8.15;;;;;;;6.17;24.26;99924.28;4486204;31;20512;-79
2022/03/14 02:01:31;;;;;;;19.08;8.00;;;;;;;6.17;24.10;99927.75;4485104;32;20522;-78
2022/03/14 02:03:57;;;;;;;19.15;8.30;;;;;;;6.16;24.24;99931.28;4485178;32;20118;-78
2022/03/14 02:06:22;;;;;;;21.35;9.73;;;;;;;6.19;24.22;99933.84;4486213;31;20106;-78
2022/03/14 02:08:48;;;;;;;20.75;9.52;;;;;;;6.17;24.81;99930.38;4484888;32;20441;-78
2022/03/14 02:11:13;;;;;;;21.92;9.82;;;;;;;6.10;25.15;99932.25;4484887;32;20115;-78
2022/03/14 02:13:39;;;;;;;20.27;9.15;;;;;;;6.10;24.87;99934.88;4484887;32;20083;-78
2022/03/14 02:16:04;;;;;;;24.95;10.95;;;;;;;6.04;24.99;99934.97;4486148;32;20141;-78
2022/03/14 02:18:30;;;;;;;21.70;9.93;;;;;;;5.99;25.32;99939.44;4486034;31;20117;-78
2022/03/14 02:20:56;;;;;;;24.15;10.63;;;;;;;5.97;25.68;99945.56;4485877;31;20104;-78
2022/03/14 02:23:21;;;;;;;19.17;9.75;;;;;;;5.96;25.73;99943.84;4486001;31;20096;-78
2022/03/14 02:25:49;;;;;;;24.10;10.60;;;;;;;5.89;25.69;99950.88;4485611;31;20337;-78
2022/03/14 02:28:15;;;;;;;25.75;11.00;;;;;;;5.84;25.92;99955.34;4486725;32;20134;-78
2022/03/14 02:30:42;;;;;;;22.92;10.32;;;;;;;5.89;25.96;99956.13;4486895;32;20487;-78
2022/03/14 02:33:07;;;;;;;24.77;11.05;;;;;;;5.84;25.93;99960.56;4486685;32;20460;-78
2022/03/14 02:35:33;;;;;;;20.88;10.20;;;;;;;5.79;25.85;99954.56;4487975;31;20132;-78
2022/03/14 02:37:58;;;;;;;25.27;11.25;;;;;;;5.78;25.91;99960.69;4486812;32;20379;-78
2022/03/14 02:40:23;;;;;;;23.15;10.73;;;;;;;5.67;26.10;99956.47;4487799;32;20135;-78
2022/03/14 02:42:50;;;;;;;22.50;10.80;;;;;;;5.63;26.10;99949.56;4487917;32;20089;-78
2022/03/14 02:45:16;;;;;;;25.33;10.98;;;;;;;5.60;26.14;99964.44;4486443;32;20530;-78
2022/03/14 02:47:42;;;;;;;23.23;10.57;;;;;;;5.60;26.05;99962.69;4487784;31;20092;-78
2022/03/14 02:50:07;;;;;;;28.98;11.52;;;;;;;5.54;26.17;99962.78;4486578;32;20100;-78
2022/03/14 02:52:33;;;;;;;20.23;9.75;;;;;;;5.49;26.38;99965.47;4486396;32;20373;-78
2022/03/14 02:54:59;;;;;;;23.87;11.20;;;;;;;5.48;26.51;99968.09;4486560;32;20083;-78
2022/03/14 02:57:24;;;;;;;24.48;10.73;;;;;;;5.39;26.59;99969.09;4487594;31;20115;-78
2022/03/14 02:59:50;;;;;;;24.33;11.43;;;;;;;5.40;26.68;99972.56;4486490;32;20160;-78
2022/03/14 03:02:16;;;;;;;23.08;11.55;;;;;;;5.41;26.78;99969.06;4486635;32;20128;-78
2022/03/14 03:04:41;;;;;;;24.12;11.43;;;;;;;5.35;26.86;99980.50;4487623;31;20076;-78
2022/03/14 03:07:07;;;;;;;25.20;11.75;;;;;;;5.32;27.14;99984.00;4487735;31;20463;-78
2022/03/14 03:09:32;;;;;;;23.65;11.65;;;;;;;5.05;27.91;99979.16;4487664;31;20081;-78
2022/03/14 03:12:00;;;;;;;27.42;11.52;;;;;;;5.11;27.71;99989.50;4486515;32;20132;-78
2022/03/14 03:14:25;;;;;;;23.80;11.30;;;;;;;5.11;27.72;99979.06;4486451;32;20106;-78
2022/03/14 03:16:51;;;;;;;25.73;11.95;;;;;;;5.12;27.71;99979.06;4486347;32;20104;-78
2022/03/14 03:19:16;;;;;;;28.20;12.57;;;;;;;5.13;27.64;99988.59;4487569;31;20088;-78
2022/03/14 03:21:41;;;;;;;28.35;12.65;;;;;;;5.08;27.67;99987.81;4487861;31;20107;-78
2022/03/14 03:24:08;;;;;;;25.33;12.45;;;;;;;5.06;27.70;99991.31;4487718;31;20154;-78
2022/03/14 03:26:40;;;;;;;25.33;12.10;;;;;;;5.07;27.59;99998.28;4487894;31;20096;-78
2022/03/14 03:29:07;;;;;;;26.00;11.90;;;;;;;5.05;27.61;99993.06;4486584;32;20111;-78
2022/03/14 03:31:32;;;;;;;24.52;12.05;;;;;;;5.02;27.65;99995.72;4486376;32;20088;-78
2022/03/14 03:33:58;;;;;;;28.10;13.10;;;;;;;4.97;27.71;100001.91;4487516;31;20108;-78
2022/03/14 03:36:23;;;;;;;26.95;12.27;;;;;;;4.95;27.71;100003.66;4487390;32;20092;-78
2022/03/14 03:38:49;;;;;;;25.92;12.73;;;;;;;4.95;27.52;100007.13;4486228;31;20497;-78
2022/03/14 03:41:14;;;;;;;24.20;12.07;;;;;;;4.90;27.70;100011.53;4486227;32;20107;-78
2022/03/14 03:43:39;;;;;;;26.12;11.95;;;;;;;4.91;27.78;100008.91;4486233;32;20081;-78
2022/03/14 03:46:05;;;;;;;26.10;11.48;;;;;;;4.86;27.58;100010.69;4487326;31;20388;-78
2022/03/14 03:48:31;;;;;;;24.48;11.90;;;;;;;4.82;27.54;100008.16;4487369;31;20352;-78
2022/03/14 03:50:56;;;;;;;26.27;12.15;;;;;;;4.80;27.58;100009.91;4487355;31;20156;-78
2022/03/14 03:53:22;;;;;;;27.35;12.93;;;;;;;4.79;27.77;100016.91;4485833;32;20175;-78
2022/03/14 03:55:47;;;;;;;26.70;12.43;;;;;;;4.77;28.11;100016.06;4486083;32;20156;-78
2022/03/14 03:58:13;;;;;;;24.15;11.95;;;;;;;4.76;28.35;100014.31;4487189;31;20439;-78
2022/03/14 04:00:39;;;;;;;27.80;11.77;;;;;;;4.77;28.35;100023.00;4486089;32;20135;-78
2022/03/14 04:03:04;;;;;;;26.98;13.20;;;;;;;4.72;28.43;100020.44;4486168;32;20080;-78
2022/03/14 04:05:30;;;;;;;28.58;13.13;;;;;;;4.75;28.52;100019.53;4487304;31;20375;-78
2022/03/14 04:07:58;;;;;;;24.58;12.57;;;;;;;4.71;28.64;100014.38;4486047;32;20489;-78
2022/03/14 04:10:26;;;;;;;27.10;11.93;;;;;;;4.71;28.50;100014.38;4486132;32;20155;-78
2022/03/14 04:12:53;;;;;;;27.85;12.95;;;;;;;4.64;28.52;100017.91;4487230;31;20447;-78
2022/03/14 04:15:22;;;;;;;29.00;12.95;;;;;;;4.66;28.43;100010.94;4487315;31;20164;-78
2022/03/14 04:17:48;;;;;;;24.85;12.02;;;;;;;4.61;28.47;100012.72;4485978;32;20116;-78
2022/03/14 04:20:15;;;;;;;28.03;11.87;;;;;;;4.65;28.43;100022.25;4487143;31;20096;-78
2022/03/14 04:22:41;;;;;;;30.02;13.43;;;;;;;4.62;28.59;100016.22;4487203;31;20131;-78
2022/03/14 04:25:11;;;;;;;27.83;12.77;;;;;;;4.57;28.84;100021.47;4487176;31;20095;-78
2022/03/14 04:27:36;;;;;;;26.12;11.85;;;;;;;4.57;28.93;100028.44;4485958;32;20139;-78
2022/03/14 04:30:02;;;;;;;28.60;13.60;;;;;;;4.58;29.21;100032.75;4485883;32;20475;-78
2022/03/14 04:32:29;;;;;;;26.35;12.88;;;;;;;4.56;29.37;100040.63;4487046;31;20126;-78
2022/03/14 04:34:54;;;;;;;25.42;12.00;;;;;;;4.56;29.37;100034.53;4485947;32;20100;-78
2022/03/14 04:37:20;;;;;;;28.35;12.90;;;;;;;4.57;29.34;100038.88;4486971;31;20136;-78
2022/03/14 04:39:46;;;;;;;28.73;13.10;;;;;;;4.54;29.43;100039.78;4487082;31;20494;-78
2022/03/14 04:42:11;;;;;;;26.73;13.30;;;;;;;4.55;29.50;100043.25;4486946;32;20148;-78
2022/03/14 04:44:37;;;;;;;24.73;12.73;;;;;;;4.51;29.66;100050.25;4486906;32;20100;-78
2022/03/14 04:47:03;;;;;;;27.70;13.60;;;;;;;4.50;29.56;100048.50;4487061;31;20122;-78
2022/03/14 04:49:28;;;;;;;29.10;13.55;;;;;;;4.50;29.55;100057.22;4485136;32;20100;-78
2022/03/14 04:51:55;;;;;;;26.52;12.37;;;;;;;4.48;29.72;100052.84;4487043;31;20386;-78
2022/03/14 04:54:21;;;;;;;28.10;13.20;;;;;;;4.47;29.84;100059.84;4485740;32;20104;-78
2022/03/14 04:56:47;;;;;;;27.83;12.55;;;;;;;4.44;29.79;100059.00;4472542;32;20239;-78
2022/03/14 04:59:12;;;;;;;32.28;13.10;;;;;;;4.46;29.78;100065.06;4485572;32;20349;-78
2022/03/14 05:01:38;;;;;;;30.35;13.35;;;;;;;4.44;29.74;100066.81;4485509;32;20096;-78
2022/03/14 05:04:04;;;;;;;27.27;13.13;;;;;;;4.46;29.49;100065.06;4486836;31;20125;-78
2022/03/14 05:06:29;;;;;;;28.25;13.55;;;;;;;4.47;29.59;100072.88;4485973;32;20097;-78
2022/03/14 05:08:55;;;;;;;28.30;13.85;;;;;;;4.49;29.81;100073.72;4487005;31;20112;-78
2022/03/14 05:11:20;;;;;;;28.02;13.62;;;;;;;4.51;29.90;100076.34;4485806;32;20123;-78
2022/03/14 05:13:46;;;;;;;32.97;13.65;;;;;;;4.52;29.94;100078.06;4487013;31;20466;-78
2022/03/14 05:16:11;;;;;;;29.92;13.68;;;;;;;4.57;29.87;100075.41;4472587;32;20466;-78
2022/03/14 05:18:38;;;;;;;32.30;15.00;;;;;;;4.59;29.75;100076.25;4486819;32;20412;-78
2022/03/14 05:21:03;;;;;;;33.20;15.10;;;;;;;4.63;29.65;100083.19;4486840;31;20079;-78
2022/03/14 05:23:29;;;;;;;32.50;14.60;;;;;;;4.69;29.56;100076.16;4486774;31;20144;-78
2022/03/14 05:25:55;;;;;;;32.83;14.65;;;;;;;4.76;29.83;100076.97;4485725;32;20100;-78
2022/03/14 05:28:21;;;;;;;31.98;15.18;;;;;;;4.82;29.97;100078.66;4472123;32;20114;-78
2022/03/14 05:30:47;;;;;;;33.70;15.43;;;;;;;4.92;29.98;100086.38;4486476;31;20088;-78
2022/03/14 05:33:12;;;;;;;31.70;14.30;;;;;;;5.03;30.05;100082.78;4485162;32;20135;-78
2022/03/14 05:35:38;;;;;;;34.50;14.90;;;;;;;5.10;30.09;100082.69;4485190;32;20114;-78
2022/03/14 05:38:03;;;;;;;29.63;15.02;;;;;;;5.17;30.13;100090.44;4485191;32;20085;-78
2022/03/14 05:40:29;;;;;;;34.67;16.00;;;;;;;5.22;30.30;100093.88;4486135;31;20088;-78
2022/03/14 05:42:56;;;;;;;36.72;16.58;;;;;;;5.28;30.46;100093.81;4486334;31;20115;-78
2022/03/14 05:45:22;;;;;;;31.98;16.60;;;;;;;5.41;30.44;100098.00;4485196;32;20147;-78
2022/03/14 05:47:47;;;;;;;29.70;16.33;;;;;;;5.69;30.30;100092.41;4484979;32;20123;-78
2022/03/14 05:50:13;;;;;;;36.70;17.48;;;;;;;5.83;30.16;100102.66;4486120;32;20106;-78
2022/03/14 05:52:39;;;;;;;35.58;16.42;;;;;;;5.91;30.40;100109.53;4484720;32;20103;-77
2022/03/14 05:55:05;;;;;;;30.65;15.95;;;;;;;5.86;30.13;100106.09;4485019;32;20379;-78
2022/03/14 05:57:32;;;;;;;32.10;15.95;;;;;;;5.87;30.25;100115.69;4484993;32;20091;-78
2022/03/14 05:59:58;;;;;;;31.40;16.52;;;;;;;5.94;30.05;100115.59;4485865;32;20451;-78
2022/03/14 06:02:24;;;;;;;33.67;16.30;;;;;;;6.12;29.67;100114.50;4486113;32;20144;-78
2022/03/14 06:04:50;;;;;;;35.08;16.90;;;;;;;6.25;29.42;100122.13;4486985;32;20127;-78
2022/03/14 06:07:16;;;;;;;29.95;15.20;;;;;;;6.33;29.01;100122.00;4486752;32;20463;-78
2022/03/14 06:09:42;;;;;;;33.72;16.35;;;;;;;6.26;28.98;100125.63;4486862;32;20076;-78
2022/03/14 06:12:08;;;;;;;35.03;16.08;;;;;;;6.36;28.77;100121.97;4486796;32;20478;-78
2022/03/14 06:14:34;;;;;;;27.90;13.80;;;;;;;6.47;28.78;100130.53;4488039;31;20126;-78
2022/03/14 06:16:59;;;;;;;32.58;15.63;;;;;;;6.58;27.34;100130.31;4488062;31;20360;-78
2022/03/14 06:19:24;;;;;;;30.70;15.30;;;;;;;6.65;27.40;100131.09;4486709;32;20089;-78
2022/03/14 06:21:50;;;;;;;31.62;14.80;;;;;;;6.75;27.06;100123.94;4486767;32;20108;-78
2022/03/14 06:24:16;;;;;;;27.02;13.77;;;;;;;6.75;26.92;100130.03;4487973;31;20142;-78
2022/03/14 06:26:42;;;;;;;29.75;14.48;;;;;;;6.84;26.96;100134.28;4486904;32;20084;-78
2022/03/14 06:29:08;;;;;;;29.75;15.30;;;;;;;6.82;26.72;100139.53;4487982;31;20107;-78
2022/03/14 06:31:34;;;;;;;31.37;14.15;;;;;;;7.08;27.66;100138.19;4487795;31;20115;-78
2022/03/14 06:33:59;;;;;;;29.92;15.15;;;;;;;7.14;27.48;100145.06;4486653;32;20115;-78
2022/03/14 06:36:29;;;;;;;27.48;13.48;;;;;;;7.16;27.84;100144.16;4486601;32;20397;-78
2022/03/14 06:38:58;;;;;;;29.52;14.65;;;;;;;7.18;27.24;100144.97;4473493;32;20111;-78
2022/03/14 06:41:24;;;;;;;29.42;13.98;;;;;;;7.25;27.50;100143.13;4488014;31;20371;-78
2022/03/14 06:43:52;;;;;;;29.73;15.30;;;;;;;7.27;26.70;100147.44;4487809;31;20491;-78
2022/03/14 06:46:18;;;;;;;28.55;14.80;;;;;;;7.34;26.22;100144.69;4486791;32;20092;-78
2022/03/14 06:48:44;;;;;;;30.35;15.70;;;;;;;7.28;26.19;100146.56;4487760;31;20084;-78
2022/03/14 06:51:10;;;;;;;28.85;15.32;;;;;;;7.04;26.48;100147.00;4486664;32;20157;-78
2022/03/14 06:53:36;;;;;;;31.52;15.80;;;;;;;7.34;26.32;100155.16;4487770;31;20103;-78
2022/03/14 06:56:02;;;;;;;35.65;16.58;;;;;;;7.43;26.34;100152.37;4487868;31;20118;-78
2022/03/14 06:58:28;;;;;;;33.72;16.20;;;;;;;7.42;26.41;100153.28;4473564;32;20084;-78
2022/03/14 07:00:53;;;;;;;29.15;15.77;;;;;;;7.40;26.54;100147.22;4487741;31;20122;-78
2022/03/14 07:03:19;;;;;;;31.90;14.55;;;;;;;7.26;26.74;100161.44;4487900;31;20450;-78
2022/03/14 07:05:44;;;;;;;31.17;16.30;;;;;;;7.51;26.48;100162.72;4486587;32;20092;-78
2022/03/14 07:08:10;;;;;;;29.40;15.98;;;;;;;7.52;26.37;100159.22;4487733;31;20107;-78
2022/03/14 07:10:36;;;;;;;36.15;16.80;;;;;;;7.56;26.34;100166.13;4487891;31;20100;-78
2022/03/14 07:13:02;;;;;;;37.13;17.65;;;;;;;7.43;26.28;100160.25;4487351;31;20084;-78
2022/03/14 07:15:28;;;;;;;31.87;15.35;;;;;;;7.42;26.35;100175.13;4486599;32;20479;-78
2022/03/14 07:17:53;;;;;;;31.90;16.50;;;;;;;7.56;26.42;100164.34;4487752;31;20096;-78
2022/03/14 07:20:20;;;;;;;31.50;16.00;;;;;;;7.62;26.45;100166.00;4486296;32;20112;-78
2022/03/14 07:22:51;;;;;;;32.60;17.05;;;;;;;7.51;26.42;100168.81;4486286;32;20131;-78
2022/03/14 07:25:23;;;;;;;33.80;17.00;;;;;;;7.60;26.31;100167.78;4487454;31;20429;-78
2022/03/14 07:27:48;;;;;;;32.10;15.88;;;;;;;7.66;26.40;100171.12;4486231;32;20087;-78
2022/03/14 07:30:14;;;;;;;30.05;16.85;;;;;;;7.79;26.32;100166.50;4487347;31;20137;-78
2022/03/14 07:32:40;;;;;;;28.98;15.00;;;;;;;7.79;26.59;100170.88;4487070;31;20101;-78
2022/03/14 07:35:05;;;;;;;32.85;17.45;;;;;;;7.90;26.15;100170.66;4473076;32;20134;-78
2022/03/14 07:37:31;;;;;;;34.97;16.92;;;;;;;7.94;26.69;100174.94;4486237;32;20096;-78
2022/03/14 07:39:56;;;;;;;28.98;16.20;;;;;;;7.98;26.62;100180.09;4487132;31;20360;-78
2022/03/14 07:42:21;;;;;;;31.58;15.85;;;;;;;8.18;26.40;100178.78;4487421;31;20141;-78
2022/03/14 07:44:48;;;;;;;30.90;16.65;;;;;;;8.27;25.97;100174.19;4487152;31;20091;-78
2022/03/14 07:47:13;;;;;;;33.10;17.37;;;;;;;8.33;25.97;100173.19;4487669;31;20114;-78
2022/03/14 07:49:39;;;;;;;35.40;18.48;;;;;;;8.27;25.80;100176.81;4486528;32;20108;-78
2022/03/14 07:52:06;;;;;;;33.67;18.05;;;;;;;8.20;25.99;100177.00;4487401;31;20096;-79
2022/03/14 07:54:31;;;;;;;34.63;17.48;;;;;;;8.35;25.63;100175.78;4486096;32;20147;-78
2022/03/14 07:56:57;;;;;;;32.65;16.87;;;;;;;8.22;25.79;100183.06;4485963;32;20439;-78
2022/03/14 07:59:22;;;;;;;32.65;17.33;;;;;;;8.21;25.79;100176.09;4485996;32;20108;-78
2022/03/14 08:01:47;;;;;;;31.50;16.52;;;;;;;8.27;25.77;100181.22;4487381;32;20088;-78
2022/03/14 08:04:13;;;;;;;32.92;17.40;;;;;;;8.49;25.50;100180.75;4486933;31;20084;-78
2022/03/14 08:06:42;;;;;;;30.33;15.32;;;;;;;8.50;25.56;100190.34;4487251;31;20360;-78
2022/03/14 08:09:08;;;;;;;25.17;14.05;;;;;;;8.66;24.66;100181.19;4486134;32;20750;-78
2022/03/14 08:11:35;;;;;;;25.15;11.98;;;;;;;8.47;24.17;100186.03;4486089;32;20131;-78
2022/03/14 08:14:01;;;;;;;20.98;10.98;;;;;;;8.62;23.84;100192.69;4487283;31;20163;-78
2022/03/14 08:16:27;;;;;;;21.58;10.93;;;;;;;8.88;23.42;100193.81;4485809;32;20205;-78
2022/03/14 08:18:52;;;;;;;20.67;10.15;;;;;;;8.90;22.98;100195.47;4485839;32;20361;-79
2022/03/14 08:21:18;;;;;;;18.08;9.55;;;;;;;8.79;22.78;100195.75;4487105;31;20096;-79
2022/03/14 08:23:45;;;;;;;20.37;9.88;;;;;;;8.71;22.59;100194.22;4472377;32;20142;-79
2022/03/14 08:26:10;;;;;;;21.58;9.85;;;;;;;8.82;22.51;100200.94;4486873;31;20075;-78
2022/03/14 08:28:36;;;;;;;22.17;10.52;;;;;;;9.00;22.36;100199.63;4487048;31;20420;-78
2022/03/14 08:31:02;;;;;;;21.45;10.82;;;;;;;9.05;22.30;100205.59;4487165;32;20118;-78
2022/03/14 08:33:29;;;;;;;20.55;10.32;;;;;;;9.17;22.21;100209.69;4485996;32;20096;-78
2022/03/14 08:35:59;;;;;;;22.37;9.80;;;;;;;9.29;21.87;100205.91;4487122;31;20153;-78
2022/03/14 08:38:25;;;;;;;18.80;9.18;;;;;;;9.31;21.56;100209.34;4485881;32;20147;-79
2022/03/14 08:40:50;;;;;;;19.33;9.48;;;;;;;9.29;21.68;100202.38;4486971;31;20364;-78
2022/03/14 08:43:16;;;;;;;20.70;9.15;;;;;;;9.34;21.57;100200.50;4487068;31;20142;-79
2022/03/14 08:45:43;;;;;;;20.40;10.25;;;;;;;9.31;21.77;100201.47;4487007;31;20574;-78
2022/03/14 08:48:11;;;;;;;20.00;9.07;;;;;;;9.42;21.50;100204.62;4486979;31;20135;-78
2022/03/14 08:50:38;;;;;;;18.42;9.13;;;;;;;9.38;21.83;100204.78;4485764;32;20104;-79
2022/03/14 08:53:04;;;;;;;18.03;8.73;;;;;;;9.37;21.56;100203.06;4486809;31;20096;-78
2022/03/14 08:55:29;;;;;;;17.40;8.68;;;;;;;9.27;21.67;100205.03;4486041;32;20208;-79
2022/03/14 08:57:55;;;;;;;17.10;8.32;;;;;;;9.47;21.79;100204.53;4485947;32;20100;-79
2022/03/14 09:00:24;;;;;;;19.23;8.75;;;;;;;9.52;21.76;100193.88;4486870;32;20104;-79
2022/03/14 09:02:50;;;;;;;18.80;8.85;;;;;;;9.51;21.63;100203.53;4485972;32;20452;-79
2022/03/14 09:05:16;;;;;;;19.45;8.63;;;;;;;9.42;21.69;100203.78;4486694;31;20108;-79
2022/03/14 09:07:42;;;;;;;20.33;8.23;;;;;;;9.37;21.69;100203.06;4486764;31;20379;-78
2022/03/14 09:10:09;;;;;;;16.27;8.32;;;;;;;9.62;21.42;100203.25;4485608;32;20096;-78
2022/03/14 09:12:36;;;;;;;20.12;8.20;;;;;;;9.57;21.61;100205.12;4485562;32;20148;-78
2022/03/14 09:15:02;;;;;;;16.40;7.70;;;;;;;9.60;21.40;100202.41;4472434;32;20159;-79
2022/03/14 09:17:28;;;;;;;17.50;8.32;;;;;;;9.74;21.35;100202.91;4472257;32;20530;-79
2022/03/14 09:19:54;;;;;;;16.60;7.72;;;;;;;9.74;21.55;100202.03;4485337;32;20134;-79
2022/03/14 09:22:20;;;;;;;15.82;8.00;;;;;;;9.86;21.42;100209.56;4486725;31;20424;-78
2022/03/14 09:24:47;;;;;;;19.23;8.00;;;;;;;9.94;21.41;100209.34;4486657;32;20104;-79
2022/03/14 09:27:13;;;;;;;16.60;7.85;;;;;;;9.99;21.77;100208.31;4485406;32;20100;-79
2022/03/14 09:29:38;;;;;;;17.02;7.85;;;;;;;10.14;21.27;100212.28;4485263;32;20143;-79
2022/03/14 09:32:04;;;;;;;15.50;7.60;;;;;;;9.78;21.56;100201.03;4486497;31;20085;-79
2022/03/14 09:34:31;;;;;;;15.07;6.82;;;;;;;10.01;21.23;100203.00;4472145;32;20108;-79
2022/03/14 09:36:57;;;;;;;15.00;6.82;;;;;;;9.98;21.09;100206.56;4487919;31;20122;-79
2022/03/14 09:39:22;;;;;;;22.55;7.47;;;;;;;10.19;21.15;100205.06;4488274;31;20468;-79
2022/03/14 09:41:50;;;;;;;17.90;7.93;;;;;;;10.22;21.02;100202.34;4487242;32;20152;-79
2022/03/14 09:44:19;;;;;;;17.17;8.40;;;;;;;10.14;21.32;100209.63;4488317;31;20171;-78
2022/03/14 09:46:46;;;;;;;16.70;8.10;;;;;;;10.34;21.51;100211.69;4487083;32;20100;-79
2022/03/14 09:49:14;;;;;;;18.05;8.25;;;;;;;10.44;21.37;100207.00;4487058;32;20448;-78
2022/03/14 09:51:41;;;;;;;17.40;8.55;;;;;;;10.56;21.39;100211.00;4488273;31;20088;-79
2022/03/14 09:54:08;;;;;;;17.10;7.70;;;;;;;10.55;21.37;100204.03;4488030;31;20124;-79
2022/03/14 09:56:33;;;;;;;17.00;7.85;;;;;;;10.51;21.63;100207.69;4487229;32;20105;-79
2022/03/14 09:59:02;;;;;;;15.98;7.60;;;;;;;10.49;21.36;100209.47;4488035;31;20321;-79
2022/03/14 10:01:28;;;;;;;19.85;8.02;;;;;;;10.65;21.13;100204.59;4486900;32;20108;-79
2022/03/14 10:03:55;;;;;;;16.98;7.68;;;;;;;10.64;21.16;100209.00;4488134;31;20084;-79
2022/03/14 10:06:20;;;;;;;15.40;7.65;;;;;;;10.57;21.19;100200.44;4486922;32;20100;-78
2022/03/14 10:08:46;;;;;;;16.87;7.97;;;;;;;10.75;21.42;100204.25;4486986;32;20130;-79
2022/03/14 10:11:12;;;;;;;16.35;7.55;;;;;;;10.78;21.14;100201.50;4488145;32;20471;-79
2022/03/14 10:13:37;;;;;;;16.48;7.43;;;;;;;10.68;21.05;100200.09;4487975;31;20106;-79
2022/03/14 10:16:04;;;;;;;16.75;6.40;;;;;;;10.83;20.94;100198.72;4488077;31;20364;-79
2022/03/14 10:18:44;;;;;;;15.82;7.18;;;;;;;10.95;20.83;100198.31;4486783;32;20162;-79
2022/03/14 10:21:12;;;;;;;16.05;6.45;;;;;;;10.98;20.86;100192.94;4486854;32;20084;-79
2022/03/14 10:23:41;;;;;;;17.80;6.12;;;;;;;11.06;20.95;100192.66;4488037;31;20080;-79
2022/03/14 10:26:10;;;;;;;15.63;6.18;;;;;;;10.97;20.70;100188.59;4486809;32;20096;-79
2022/03/14 10:28:38;;;;;;;13.60;5.78;;;;;;;11.07;20.51;100194.41;4486930;32;20134;-79
2022/03/14 10:31:04;;;;;;;14.18;6.12;;;;;;;11.18;20.42;100191.38;4488099;31;20096;-79
2022/03/14 10:33:31;;;;;;;13.50;5.78;;;;;;;11.25;20.45;100192.06;4487972;31;20133;-79
2022/03/14 10:35:57;;;;;;;14.85;6.40;;;;;;;11.36;20.45;100193.41;4486679;32;20112;-79
2022/03/14 10:38:25;;;;;;;13.88;6.05;;;;;;;11.39;20.48;100184.50;4473518;32;20130;-79
2022/03/14 10:40:51;;;;;;;14.77;6.43;;;;;;;11.32;20.87;100190.91;4486718;32;20470;-79
2022/03/14 10:43:33;;;;;;;13.25;6.05;;;;;;;11.49;20.58;100191.19;4487754;31;20092;-79
2022/03/14 10:46:00;;;;;;;13.60;6.05;;;;;;;11.58;20.10;100196.13;4473863;32;20179;-79
2022/03/14 10:48:44;;;;;;;13.48;6.20;;;;;;;11.55;20.09;100204.16;4473042;32;20113;-79
2022/03/14 10:51:11;;;;;;;12.82;5.47;;;;;;;11.60;20.46;100201.34;4487884;31;20115;-78
2022/03/14 10:53:46;;;;;;;12.23;5.47;;;;;;;11.48;20.17;100194.72;4486402;32;20145;-79
2022/03/14 10:56:13;;;;;;;13.55;5.15;;;;;;;11.80;19.99;100198.84;4488286;31;20093;-79
2022/03/14 10:58:39;;;;;;;14.23;5.60;;;;;;;11.67;20.12;100199.38;4488036;32;20135;-79
2022/03/14 11:01:06;;;;;;;14.52;5.70;;;;;;;11.80;20.23;100197.97;4486824;32;20109;-79
2022/03/14 11:03:37;;;;;;;12.57;5.47;;;;;;;11.85;20.01;100188.09;4486808;32;20431;-79
2022/03/14 11:06:07;;;;;;;13.62;6.07;;;;;;;11.80;19.84;100190.03;4486771;32;20177;-79
2022/03/14 11:08:40;;;;;;;13.60;5.18;;;;;;;11.77;19.94;100185.75;4486644;32;20130;-79
2022/03/14 11:11:08;;;;;;;13.73;5.82;;;;;;;11.54;20.24;100186.59;4486421;32;20089;-79
2022/03/14 11:13:39;;;;;;;14.45;6.10;;;;;;;11.60;20.14;100189.00;4486559;32;20114;-79
2022/03/14 11:16:05;;;;;;;12.88;5.25;;;;;;;11.74;20.10;100185.87;4486487;32;20108;-79
2022/03/14 11:18:32;;;;;;;12.30;5.65;;;;;;;11.68;20.15;100180.81;4486378;32;20451;-79